Time;durP1;ratioP1;P1;durP2;ratioP2;P2;SDS_P1;SDS_P2;PMS_P1;PMS_P2;Temp;Humidity;BMP_temperature;BMP_pressure;BME280_temperature;BME280_humidity;BME280_pressure;Samples;Min_cycle;Max_cycle;Signal;HPM_P1;HPM_P2
2021/09/25 00:01:22;;;;;;;3.92;1.95;;;;;;;29.35;60.58;100759.59;5047456;28;69840;-39
2021/09/25 00:03:54;;;;;;;2.53;2.33;;;;;;;29.23;61.43;100744.28;5052500;27;66209;-39
2021/09/25 00:06:24;;;;;;;3.10;2.08;;;;;;;29.43;61.27;100772.06;5042443;28;70193;-38
2021/09/25 00:08:56;;;;;;;4.78;2.28;;;;;;;29.45;60.94;100774.53;5045718;28;66518;-39
2021/09/25 00:11:28;;;;;;;;;;;;;;;29.14;62.22;100779.63;5048703;28;69140;-36
2021/09/25 00:13:59;;;;;;;4.63;2.70;;;;;;;29.44;61.37;100784.50;5050295;28;65389;-38
2021/09/25 00:16:31;;;;;;;2.65;2.45;;;;;;;29.51;61.20;100789.91;5054533;28;71907;-38
2021/09/25 00:19:03;;;;;;;2.42;2.22;;;;;;;29.51;61.61;100784.50;5047064;28;66606;-39
2021/09/25 00:21:34;;;;;;;2.70;2.03;;;;;;;29.58;61.53;100796.94;5047034;28;70763;-39
2021/09/25 00:24:05;;;;;;;3.40;2.45;;;;;;;29.61;61.27;100790.28;5055159;28;65761;-39
2021/09/25 00:26:36;;;;;;;3.03;2.83;;;;;;;29.62;62.00;100791.94;5052633;28;69671;-39
2021/09/25 00:29:08;;;;;;;2.25;2.13;;;;;;;29.57;62.09;100789.06;5036872;28;66359;-38
2021/09/25 00:31:38;;;;;;;2.70;2.50;;;;;;;29.67;62.06;100799.44;5048029;28;70088;-39
2021/09/25 00:34:10;;;;;;;2.13;1.93;;;;;;;29.69;62.16;100803.56;5042531;28;65774;-39
2021/09/25 00:36:41;;;;;;;2.17;1.98;;;;;;;29.72;62.44;100797.75;5044269;28;69406;-38
2021/09/25 00:39:12;;;;;;;3.05;2.28;;;;;;;29.75;61.81;100793.78;5044279;28;66504;-38
2021/09/25 00:41:43;;;;;;;3.63;2.20;;;;;;;29.74;62.16;100794.84;5048720;28;68897;-38
2021/09/25 00:44:13;;;;;;;9.50;3.10;;;;;;;29.80;62.51;100802.09;5044997;28;67600;-40
2021/09/25 00:46:45;;;;;;;16.73;3.45;;;;;;;29.79;63.52;100803.13;5051645;28;69016;-39
2021/09/25 00:49:22;;;;;;;9.13;3.83;;;;;;;29.89;65.06;100808.06;5042033;28;67592;-39
2021/09/25 00:51:53;;;;;;;5.13;4.45;;;;;;;29.89;64.62;100802.66;5057489;28;69654;-40
2021/09/25 00:54:24;;;;;;;7.93;4.55;;;;;;;29.94;65.74;100821.78;5040964;28;67481;-38
2021/09/25 00:56:56;;;;;;;8.33;4.63;;;;;;;29.94;65.40;100827.19;5048080;28;69257;-39
2021/09/25 00:59:27;;;;;;;6.87;4.10;;;;;;;29.95;65.79;100823.44;5046424;28;65921;-40
2021/09/25 01:01:59;;;;;;;5.28;4.32;;;;;;;29.93;65.86;100814.72;5039672;28;70140;-39
2021/09/25 01:04:30;;;;;;;8.15;4.65;;;;;;;29.96;65.80;100833.22;5040508;28;66341;-40
2021/09/25 01:07:01;;;;;;;5.93;4.53;;;;;;;29.96;66.63;100831.34;5038147;28;70177;-39
2021/09/25 01:09:32;;;;;;;8.97;4.80;;;;;;;29.97;66.56;100829.47;5033396;28;66490;-40
2021/09/25 01:12:04;;;;;;;5.20;4.47;;;;;;;30.00;66.62;100827.16;5045000;28;69508;-38
2021/09/25 01:14:35;;;;;;;4.95;4.55;;;;;;;29.97;66.62;100826.75;5041643;28;66054;-37
2021/09/25 01:17:12;;;;;;;5.13;4.72;;;;;;;30.03;66.45;100834.00;5039704;28;69756;-40
2021/09/25 01:19:43;;;;;;;4.40;4.03;;;;;;;30.03;66.67;100831.28;5031112;28;65912;-39
2021/09/25 01:22:15;;;;;;;4.65;4.25;;;;;;;30.02;66.98;100843.16;5045393;28;69607;-41
2021/09/25 01:24:46;;;;;;;5.05;4.35;;;;;;;30.01;66.77;100838.81;5044521;28;66101;-48
2021/09/25 01:27:18;;;;;;;4.90;4.47;;;;;;;30.02;66.48;100835.06;5016822;28;69453;-39
2021/09/25 01:29:50;;;;;;;4.72;4.38;;;;;;;30.03;67.00;100837.56;5036591;28;64360;-40
2021/09/25 01:32:22;;;;;;;5.18;4.68;;;;;;;30.08;66.94;100834.19;5044616;28;69661;-39
2021/09/25 01:34:53;;;;;;;5.43;5.00;;;;;;;30.06;67.21;100844.38;5045145;27;65553;-38
2021/09/25 01:37:24;;;;;;;6.25;5.25;;;;;;;30.12;66.65;100842.72;5048444;28;69457;-38
2021/09/25 01:39:55;;;;;;;7.27;4.63;;;;;;;30.12;66.07;100842.72;5045734;28;66087;-38
2021/09/25 01:42:26;;;;;;;5.45;4.05;;;;;;;30.13;65.93;100847.91;5045981;28;69641;-38
2021/09/25 01:44:58;;;;;;;4.57;4.18;;;;;;;30.13;65.69;100847.06;5042357;28;66439;-38
2021/09/25 01:47:30;;;;;;;4.40;4.00;;;;;;;30.16;65.59;100842.06;5045100;28;70186;-38
2021/09/25 01:50:04;;;;;;;4.40;4.00;;;;;;;30.09;65.23;100837.72;5029853;28;65334;-40
2021/09/25 01:52:35;;;;;;;5.85;4.43;;;;;;;30.14;66.01;100833.31;5026208;28;70198;-39
2021/09/25 01:55:08;;;;;;;4.28;3.92;;;;;;;30.15;65.86;100839.59;5052754;28;66554;-40
2021/09/25 01:57:40;;;;;;;4.60;4.20;;;;;;;30.17;66.07;100827.50;5034007;28;70476;-38
2021/09/25 02:00:13;;;;;;;5.10;4.30;;;;;;;30.17;65.56;100826.66;5047665;28;66267;-40
2021/09/25 02:02:47;;;;;;;6.78;4.07;;;;;;;30.24;65.34;100831.00;5029077;28;70734;-39
2021/09/25 02:05:18;;;;;;;;;;;;;;;29.98;65.40;100834.66;5035090;28;66062;-38
2021/09/25 02:07:50;;;;;;;4.40;4.10;;;;;;;30.28;64.16;100829.53;5047967;28;69446;-39
2021/09/25 02:10:21;;;;;;;4.18;3.75;;;;;;;30.24;64.43;100828.31;5053631;27;65418;-38
2021/09/25 02:12:53;;;;;;;6.20;3.55;;;;;;;30.27;64.01;100836.00;5046263;28;69324;-39
2021/09/25 02:15:25;;;;;;;3.83;3.53;;;;;;;30.28;64.49;100824.13;5041091;28;66593;-38
2021/09/25 02:17:57;;;;;;;5.75;3.88;;;;;;;30.35;64.52;100820.56;5045404;28;70236;-38
2021/09/25 02:20:29;;;;;;;4.22;3.50;;;;;;;30.37;64.36;100815.72;5028820;28;66372;-38
2021/09/25 02:23:00;;;;;;;6.00;3.10;;;;;;;30.43;64.64;100828.41;5036182;28;70030;-40
2021/09/25 02:25:31;;;;;;;4.18;3.78;;;;;;;30.47;64.13;100824.19;5045049;28;67519;-38
2021/09/25 02:28:02;;;;;;;5.17;3.67;;;;;;;30.48;64.10;100834.00;5041515;28;69486;-39
2021/09/25 02:30:34;;;;;;;;;;;;;;;30.28;64.16;100834.97;5049640;28;65440;-38
2021/09/25 02:33:05;;;;;;;7.75;4.32;;;;;;;30.54;63.60;100835.81;5041605;28;69485;-39
2021/09/25 02:35:37;;;;;;;4.28;3.55;;;;;;;30.58;63.92;100837.03;5046529;28;66250;-38
2021/09/25 02:38:10;;;;;;;4.53;3.33;;;;;;;30.60;63.99;100836.81;5047991;28;70104;-38
2021/09/25 02:40:41;;;;;;;6.03;4.32;;;;;;;30.64;63.90;100838.03;5047123;28;66103;-38
2021/09/25 02:43:12;;;;;;;3.93;3.50;;;;;;;30.67;63.44;100846.56;5038896;28;70067;-39
2021/09/25 02:45:45;;;;;;;4.38;3.65;;;;;;;30.70;63.91;100851.53;5048819;28;66676;-39
2021/09/25 02:48:17;;;;;;;5.13;3.22;;;;;;;30.60;63.57;100837.66;5035561;28;69273;-39
2021/09/25 02:50:49;;;;;;;3.20;2.85;;;;;;;30.68;63.50;100850.91;5043984;28;66620;-39
2021/09/25 02:53:20;;;;;;;4.30;3.38;;;;;;;30.73;63.25;100848.38;5022002;28;70149;-39
2021/09/25 02:55:52;;;;;;;4.00;3.08;;;;;;;30.79;62.55;100843.16;5036664;28;65112;-38
2021/09/25 02:58:23;;;;;;;3.10;2.90;;;;;;;30.77;62.81;100837.94;5037098;28;68833;-39
2021/09/25 03:00:53;;;;;;;3.47;3.17;;;;;;;30.73;62.69;100832.13;5050893;28;65640;-39
2021/09/25 03:03:24;;;;;;;3.20;2.90;;;;;;;30.77;62.07;100837.94;5046523;28;70045;-39
2021/09/25 03:05:59;;;;;;;2.72;2.53;;;;;;;30.80;62.48;100839.41;5045580;28;66136;-39
2021/09/25 03:08:29;;;;;;;3.58;3.05;;;;;;;30.80;62.34;100831.28;5042632;28;70106;-39
2021/09/25 03:11:01;;;;;;;2.77;2.33;;;;;;;30.83;61.88;100841.66;5047258;28;66470;-39
2021/09/25 03:13:32;;;;;;;5.07;2.88;;;;;;;30.83;62.51;100836.25;5030480;28;69344;-38
2021/09/25 03:16:03;;;;;;;4.43;3.30;;;;;;;30.88;62.32;100833.72;5042320;28;66290;-38
2021/09/25 03:18:34;;;;;;;3.70;2.85;;;;;;;30.86;62.20;100833.09;5043995;28;70031;-39
2021/09/25 03:21:05;;;;;;;11.30;2.97;;;;;;;30.88;62.59;100828.31;5049945;28;66418;-39
2021/09/25 03:23:36;;;;;;;3.20;2.90;;;;;;;30.93;62.28;100832.00;5047145;28;69387;-39
2021/09/25 03:26:07;;;;;;;5.63;2.37;;;;;;;30.94;61.78;100824.69;5044858;28;65502;-39
2021/09/25 03:28:38;;;;;;;2.38;2.15;;;;;;;31.01;61.49;100835.47;5044340;28;69273;-40
2021/09/25 03:31:10;;;;;;;3.13;2.10;;;;;;;31.02;61.54;100829.84;5043298;28;66858;-39
2021/09/25 03:33:41;;;;;;;3.47;2.40;;;;;;;31.02;61.73;100835.25;5044991;28;69352;-39
2021/09/25 03:36:12;;;;;;;11.27;2.23;;;;;;;31.08;61.86;100833.53;5032162;28;67472;-39
2021/09/25 03:38:44;;;;;;;6.38;2.05;;;;;;;31.08;61.56;100822.69;5046486;28;70417;-39
2021/09/25 03:41:16;;;;;;;3.35;2.20;;;;;;;31.13;61.74;100831.81;5044603;28;66026;-39
2021/09/25 03:43:50;;;;;;;;;;;;;;;30.93;61.63;100825.75;5044215;28;69956;-38
2021/09/25 03:46:21;;;;;;;3.58;1.70;;;;;;;31.19;61.32;100818.44;5042951;28;67036;-39
2021/09/25 03:48:52;;;;;;;2.70;2.10;;;;;;;31.21;61.99;100816.31;5046588;28;70181;-39
2021/09/25 03:51:23;;;;;;;4.53;2.15;;;;;;;31.20;61.74;100820.06;5034395;28;66444;-39
2021/09/25 03:53:54;;;;;;;2.73;1.97;;;;;;;31.16;62.25;100814.28;5031525;28;69068;-38
2021/09/25 03:56:25;;;;;;;8.02;2.42;;;;;;;31.25;62.35;100812.09;5038520;28;66275;-37
2021/09/25 03:58:56;;;;;;;2.33;2.13;;;;;;;31.25;62.00;100809.38;5049799;28;70412;-37
2021/09/25 04:01:28;;;;;;;5.23;2.30;;;;;;;31.26;62.67;100802.91;5048977;28;65406;-37
2021/09/25 04:03:59;;;;;;;4.38;2.78;;;;;;;31.32;62.47;100808.28;5042530;28;70253;-37
2021/09/25 04:06:31;;;;;;;2.33;2.13;;;;;;;31.30;62.18;100799.53;5024599;28;66358;-40
2021/09/25 04:09:05;;;;;;;3.40;2.03;;;;;;;31.35;62.48;100796.16;5029641;28;69940;-38
2021/09/25 04:11:37;;;;;;;5.28;1.90;;;;;;;31.37;62.46;100799.47;5042757;28;66574;-38
2021/09/25 04:14:08;;;;;;;2.70;1.60;;;;;;;31.32;61.94;100785.78;5046339;28;69880;-37
2021/09/25 04:16:39;;;;;;;2.70;1.80;;;;;;;31.37;61.78;100794.91;5047571;27;66647;-38
2021/09/25 04:19:10;;;;;;;1.90;1.40;;;;;;;31.38;61.81;100795.75;5049827;27;70407;-37
2021/09/25 04:21:41;;;;;;;2.40;1.55;;;;;;;31.39;61.94;100786.53;5046619;28;65916;-37
2021/09/25 04:24:12;;;;;;;;;;;;;;;31.08;62.10;100780.16;5037469;28;70543;-36
2021/09/25 04:26:43;;;;;;;4.72;1.73;;;;;;;31.38;61.60;100779.47;5045937;28;66264;-39
2021/09/25 04:29:15;;;;;;;4.03;2.20;;;;;;;31.39;61.71;100775.69;5044746;28;70248;-37
2021/09/25 04:31:46;;;;;;;1.52;1.27;;;;;;;31.37;61.58;100769.66;5044993;28;66757;-37
2021/09/25 04:34:17;;;;;;;2.22;1.50;;;;;;;31.37;61.52;100756.97;5038181;28;69861;-38
2021/09/25 04:36:48;;;;;;;2.03;1.58;;;;;;;31.38;61.72;100752.38;5046131;28;65382;-37
2021/09/25 04:39:19;;;;;;;3.38;1.67;;;;;;;31.39;62.27;100751.31;5041700;28;70634;-39
2021/09/25 04:41:51;;;;;;;2.08;1.40;;;;;;;31.39;62.19;100749.41;5043776;28;66487;-37
2021/09/25 04:44:24;;;;;;;3.95;1.77;;;;;;;31.37;62.31;100745.28;5040744;28;70238;-37
2021/09/25 04:46:56;;;;;;;2.10;1.83;;;;;;;31.32;62.55;100731.56;5044369;28;65969;-37
2021/09/25 04:49:28;;;;;;;2.33;2.03;;;;;;;31.32;62.84;100731.56;5031453;28;70062;-37
2021/09/25 04:52:00;;;;;;;1.83;1.67;;;;;;;31.34;62.71;100730.28;5017396;28;65382;-37
2021/09/25 04:54:31;;;;;;;2.30;1.80;;;;;;;31.36;63.20;100728.19;5044791;28;70659;-37
2021/09/25 04:57:04;;;;;;;2.08;1.88;;;;;;;31.37;63.49;100734.44;5048653;28;66070;-38
2021/09/25 04:59:35;;;;;;;3.42;2.30;;;;;;;31.30;62.37;100714.69;5047700;28;70020;-38
2021/09/25 05:02:06;;;;;;;2.05;1.85;;;;;;;31.28;60.91;100720.34;5047758;28;64998;-37
2021/09/25 05:04:37;;;;;;;1.70;1.40;;;;;;;31.19;59.96;100699.19;5041359;28;68889;-38
2021/09/25 05:07:08;;;;;;;4.93;1.90;;;;;;;31.10;59.47;100707.63;5047242;28;66089;-37
2021/09/25 05:09:40;;;;;;;2.97;1.73;;;;;;;31.01;58.27;100708.13;5038404;28;69302;-38
2021/09/25 05:12:11;;;;;;;1.70;1.45;;;;;;;30.93;58.26;100702.00;5032194;28;66196;-36
2021/09/25 05:14:43;;;;;;;1.98;1.65;;;;;;;30.88;58.20;100701.00;5021054;28;69866;-39
2021/09/25 05:17:14;;;;;;;3.47;1.73;;;;;;;30.80;57.70;100691.28;5036183;28;66075;-38
2021/09/25 05:19:47;;;;;;;1.63;1.20;;;;;;;30.77;57.34;100688.19;5032084;28;69948;-38
2021/09/25 05:22:20;;;;;;;3.72;1.70;;;;;;;30.75;56.43;100679.44;5034698;28;66033;-39
2021/09/25 05:24:52;;;;;;;6.07;1.67;;;;;;;30.73;56.45;100671.56;5041292;28;70208;-37
2021/09/25 05:27:25;;;;;;;3.63;1.73;;;;;;;30.66;55.33;100674.31;5021316;28;66395;-38
2021/09/25 05:29:57;;;;;;;4.82;1.42;;;;;;;30.61;55.52;100665.22;5041583;28;70822;-38
2021/09/25 05:32:29;;;;;;;4.30;1.77;;;;;;;30.60;54.54;100658.16;5029829;28;65757;-38
2021/09/25 05:35:03;;;;;;;8.30;1.73;;;;;;;30.62;54.19;100656.03;5035237;28;71389;-40
2021/09/25 05:37:37;;;;;;;7.88;2.08;;;;;;;30.63;54.61;100647.69;5033160;28;66885;-37
2021/09/25 05:40:11;;;;;;;9.43;1.63;;;;;;;30.63;54.24;100641.47;5013529;28;69995;-37
2021/09/25 05:42:42;;;;;;;8.63;1.10;;;;;;;30.56;53.70;100629.84;5016166;28;65117;-37
2021/09/25 05:45:16;;;;;;;8.75;1.42;;;;;;;30.59;52.96;100635.66;5030484;28;70099;-37
2021/09/25 05:47:47;;;;;;;6.07;1.70;;;;;;;30.58;53.50;100608.81;5032691;28;66146;-37
2021/09/25 05:50:20;;;;;;;1.90;1.50;;;;;;;30.65;52.72;100610.41;5044973;28;69363;-36
2021/09/25 05:52:53;;;;;;;3.05;1.73;;;;;;;30.64;51.88;100610.63;5032313;28;66243;-37
2021/09/25 05:55:25;;;;;;;6.35;1.27;;;;;;;30.60;52.04;100594.00;5028177;28;70150;-36
2021/09/25 05:58:04;;;;;;;4.57;1.75;;;;;;;30.63;51.96;100593.53;5029767;28;66416;-36
2021/09/25 06:00:38;;;;;;;3.97;1.55;;;;;;;30.62;51.26;100586.50;5050846;28;70677;-36
2021/09/25 06:03:11;;;;;;;8.77;1.40;;;;;;;30.58;50.64;100563.63;5044732;28;65284;-36
2021/09/25 06:05:42;;;;;;;6.93;1.42;;;;;;;30.66;50.67;100568.72;5049469;28;69664;-37
2021/09/25 06:08:15;;;;;;;3.30;1.45;;;;;;;30.65;51.08;100564.38;5047119;28;65529;-37
2021/09/25 06:10:47;;;;;;;2.10;1.30;;;;;;;30.54;50.33;100540.78;5030618;28;69657;-37
2021/09/25 06:13:18;;;;;;;1.73;1.13;;;;;;;30.67;50.83;100559.56;5047287;28;65774;-42
2021/09/25 06:15:49;;;;;;;2.10;1.38;;;;;;;30.67;50.26;100551.44;5054759;28;70127;-37
2021/09/25 06:18:20;;;;;;;1.58;1.40;;;;;;;30.67;49.48;100542.47;5048222;28;66876;-37
2021/09/25 06:20:51;;;;;;;3.58;1.65;;;;;;;30.68;48.96;100539.56;5029285;28;69551;-38
2021/09/25 06:23:23;;;;;;;2.63;1.23;;;;;;;30.68;48.78;100536.84;5058740;28;66395;-38
2021/09/25 06:25:54;;;;;;;1.67;1.02;;;;;;;30.67;49.52;100524.38;5033339;28;69469;-37
2021/09/25 06:28:25;;;;;;;1.33;1.00;;;;;;;30.69;48.92;100524.13;5050645;28;66034;-37
2021/09/25 06:30:57;;;;;;;1.88;1.20;;;;;;;30.60;48.18;100523.63;5045127;28;70081;-37
2021/09/25 06:33:28;;;;;;;2.05;1.00;;;;;;;30.71;48.62;100522.03;5047153;28;65972;-37
2021/09/25 06:36:00;;;;;;;1.33;1.23;;;;;;;30.76;48.92;100522.19;5042903;28;70787;-38
2021/09/25 06:38:32;;;;;;;1.65;1.20;;;;;;;30.73;47.94;100511.81;5049204;28;66421;-37
2021/09/25 06:41:04;;;;;;;2.17;1.20;;;;;;;30.81;48.80;100514.19;5046565;28;70395;-37
2021/09/25 06:43:35;;;;;;;1.35;1.20;;;;;;;30.83;48.42;100527.53;5059703;28;65957;-37
2021/09/25 06:46:09;;;;;;;1.40;1.05;;;;;;;30.83;48.30;100516.69;5035297;28;70398;-36
2021/09/25 06:48:43;;;;;;;6.30;1.27;;;;;;;30.92;47.94;100504.47;5050770;27;65557;-37
2021/09/25 06:51:17;;;;;;;1.48;1.27;;;;;;;30.88;48.03;100508.72;5020614;28;70519;-37
2021/09/25 06:53:48;;;;;;;1.20;1.10;;;;;;;30.89;48.09;100504.94;5048156;28;66218;-38
2021/09/25 06:56:23;;;;;;;1.20;1.10;;;;;;;30.72;47.27;100472.22;5047520;28;69980;-38
2021/09/25 06:58:54;;;;;;;1.67;0.98;;;;;;;30.92;47.94;100493.66;5035914;28;66299;-38
2021/09/25 07:01:25;;;;;;;1.20;1.10;;;;;;;30.87;47.69;100482.66;5048911;28;70521;-36
2021/09/25 07:03:57;;;;;;;1.95;1.52;;;;;;;30.90;48.05;100476.81;5048347;28;66187;-36
2021/09/25 07:06:31;;;;;;;1.13;0.95;;;;;;;30.90;48.04;100479.53;5055367;28;70554;-37
2021/09/25 07:09:05;;;;;;;1.48;1.20;;;;;;;30.90;47.50;100485.78;5054254;28;63597;-36
2021/09/25 07:11:38;;;;;;;1.90;1.23;;;;;;;30.84;47.42;100480.44;5035970;28;68899;-37
2021/09/25 07:14:10;;;;;;;0.95;0.88;;;;;;;30.89;47.17;100491.41;5037962;28;66309;-36
2021/09/25 07:16:41;;;;;;;1.15;0.73;;;;;;;30.80;46.89;100479.25;5061086;27;69320;-37
2021/09/25 07:19:15;;;;;;;1.30;1.20;;;;;;;30.79;46.59;100466.75;5056975;28;66182;-38
2021/09/25 07:21:48;;;;;;;4.30;1.33;;;;;;;30.89;46.18;100484.09;5030898;28;69741;-38
2021/09/25 07:24:20;;;;;;;3.58;0.80;;;;;;;30.85;46.49;100482.91;5031046;28;65243;-38
2021/09/25 07:26:51;;;;;;;1.70;1.60;;;;;;;30.82;46.82;100471.72;5060795;28;69601;-37
2021/09/25 07:29:23;;;;;;;1.77;1.67;;;;;;;30.87;46.89;100485.38;5058193;28;66700;-37
2021/09/25 07:32:00;;;;;;;1.25;1.15;;;;;;;30.76;45.66;100499.66;5037330;28;69941;-38
2021/09/25 07:34:37;;;;;;;1.77;1.23;;;;;;;30.86;46.14;100502.69;5045530;28;66400;-38
2021/09/25 07:37:13;;;;;;;1.33;1.20;;;;;;;30.83;45.61;100511.28;5043197;28;70418;-37
2021/09/25 07:39:44;;;;;;;2.42;1.13;;;;;;;30.73;45.83;100484.72;5040682;28;66219;-38
2021/09/25 07:42:16;;;;;;;;;;;;;;;30.50;45.02;100491.66;5039809;28;69697;-37
2021/09/25 07:44:48;;;;;;;1.30;1.20;;;;;;;30.64;46.07;100481.50;5043373;28;65054;-38
2021/09/25 07:47:20;;;;;;;2.25;2.00;;;;;;;30.80;47.40;100490.06;5044599;28;69484;-38
2021/09/25 07:49:52;;;;;;;3.33;1.55;;;;;;;30.78;46.75;100489.44;5035592;28;66107;-39
2021/09/25 07:52:23;;;;;;;;;;;;;;;30.50;46.51;100482.72;5049634;28;70244;-38
2021/09/25 07:54:55;;;;;;;2.75;1.70;;;;;;;30.70;46.64;100482.44;5020214;28;65913;-38
2021/09/25 07:57:27;;;;;;;2.07;1.50;;;;;;;30.74;46.30;100480.97;5053767;28;69879;-39
2021/09/25 07:59:59;;;;;;;2.03;1.30;;;;;;;30.69;45.27;100483.53;5033345;28;65428;-39
2021/09/25 08:02:59;;;;;;;4.32;1.30;;;;;;;30.68;46.59;100480.00;5047691;28;69995;-37
2021/09/25 08:05:37;;;;;;;1.60;1.50;;;;;;;30.68;46.34;100471.88;5039401;28;66651;-36
2021/09/25 08:08:09;;;;;;;1.65;1.55;;;;;;;30.66;46.14;100463.16;5041899;28;69909;-36
2021/09/25 08:10:40;;;;;;;1.73;1.45;;;;;;;30.56;45.63;100441.19;5039310;28;65630;-37
2021/09/25 08:13:13;;;;;;;2.13;1.40;;;;;;;30.65;45.47;100461.50;5054424;28;70374;-43
2021/09/25 08:15:52;;;;;;;2.22;1.60;;;;;;;30.67;45.70;100458.53;5019407;28;66057;-37
2021/09/25 08:18:27;;;;;;;1.30;1.20;;;;;;;30.62;45.30;100455.69;5021673;28;69808;-37
2021/09/25 08:20:59;;;;;;;2.58;1.52;;;;;;;30.58;45.76;100458.03;5045182;28;66256;-38
2021/09/25 08:23:31;;;;;;;2.10;1.67;;;;;;;30.63;46.07;100460.91;5043387;28;69371;-37
2021/09/25 08:26:06;;;;;;;1.70;1.60;;;;;;;30.61;45.35;100473.00;5050080;28;65789;-37
2021/09/25 08:28:39;;;;;;;1.30;1.20;;;;;;;30.60;45.35;100480.31;5049235;27;69850;-38
2021/09/25 08:31:11;;;;;;;6.75;1.60;;;;;;;30.57;45.57;100494.31;5044365;28;66220;-38
2021/09/25 08:33:44;;;;;;;1.40;1.25;;;;;;;30.58;45.43;100489.72;5031217;28;69534;-39
2021/09/25 08:36:17;;;;;;;1.75;1.40;;;;;;;30.56;46.15;100495.34;5032606;28;66214;-38
2021/09/25 08:39:08;;;;;;;2.13;1.60;;;;;;;30.46;45.63;100500.47;5021082;28;69949;-38
2021/09/25 08:41:43;;;;;;;2.80;1.30;;;;;;;30.53;45.16;100528.28;5039994;28;65293;-39
2021/09/25 08:44:14;;;;;;;2.63;1.40;;;;;;;30.49;45.01;100522.50;5047731;28;70356;-38
2021/09/25 08:46:47;;;;;;;1.50;1.35;;;;;;;30.35;45.10;100514.75;5030078;28;66226;-37
2021/09/25 08:49:18;;;;;;;3.92;3.63;;;;;;;30.46;49.17;100522.13;5038397;28;69890;-37
2021/09/25 08:51:51;;;;;;;2.80;2.60;;;;;;;30.60;49.90;100518.22;5046074;28;65220;-38
2021/09/25 08:54:22;;;;;;;2.40;2.20;;;;;;;30.65;50.46;100507.53;5039016;28;70385;-38
2021/09/25 08:56:53;;;;;;;2.10;1.90;;;;;;;30.81;50.42;100516.09;5028207;28;66308;-37
2021/09/25 08:59:24;;;;;;;3.03;2.83;;;;;;;30.87;52.94;100507.91;5029070;28;69859;-38
2021/09/25 09:01:56;;;;;;;3.28;3.08;;;;;;;30.92;55.18;100491.78;5050072;28;65961;-38
2021/09/25 09:04:43;;;;;;;5.95;5.45;;;;;;;30.90;58.37;100491.19;5048346;28;70041;-36
2021/09/25 09:07:19;;;;;;;15.85;14.25;;;;;;;31.04;57.84;100482.88;5052600;28;66341;-37
2021/09/25 09:09:54;;;;;;;47.45;32.53;;;;;;;31.17;59.02;100496.19;5030080;28;70553;-38
2021/09/25 09:12:28;;;;;;;62.92;40.53;;;;;;;31.25;59.24;100497.75;5050657;28;66381;-39
2021/09/25 09:14:59;;;;;;;75.53;49.13;;;;;;;31.27;60.28;100495.66;5039892;28;69007;-40
2021/09/25 09:17:34;;;;;;;71.32;48.05;;;;;;;31.33;61.36;100492.00;5046962;28;66155;-36
2021/09/25 09:20:12;;;;;;;59.13;41.47;;;;;;;31.28;62.02;100483.75;5041370;28;69933;-37
2021/09/25 09:22:44;;;;;;;51.50;35.55;;;;;;;31.40;61.71;100487.34;5034928;28;65827;-38
2021/09/25 09:25:19;;;;;;;43.22;31.80;;;;;;;31.45;62.41;100503.72;5048352;28;69414;-36
2021/09/25 09:27:51;;;;;;;34.42;26.20;;;;;;;31.47;62.06;100509.72;5047906;28;65323;-36
2021/09/25 09:30:24;;;;;;;32.25;23.27;;;;;;;31.52;62.42;100520.72;5022813;28;70113;-36
2021/09/25 09:32:55;;;;;;;23.13;18.75;;;;;;;31.50;62.58;100522.81;5050960;28;66186;-37
2021/09/25 09:35:26;;;;;;;23.58;17.02;;;;;;;31.47;63.98;100526.00;5036914;28;70046;-36
2021/09/25 09:38:00;;;;;;;16.90;15.43;;;;;;;31.55;64.33;100539.22;5046950;28;65611;-42
2021/09/25 09:40:31;;;;;;;14.00;12.05;;;;;;;31.51;63.32;100531.78;5041983;28;68249;-36
2021/09/25 09:43:05;;;;;;;12.80;11.60;;;;;;;31.59;63.58;100548.56;5031711;28;67233;-38
2021/09/25 09:45:39;;;;;;;11.93;10.70;;;;;;;31.58;63.89;100563.16;5042728;28;70115;-36
2021/09/25 09:48:10;;;;;;;10.20;9.38;;;;;;;31.63;64.53;100575.19;5043707;28;66362;-37
2021/09/25 09:50:42;;;;;;;11.05;9.10;;;;;;;31.60;64.76;100574.59;5035058;28;68922;-37
2021/09/25 09:53:15;;;;;;;18.38;8.95;;;;;;;31.63;65.95;100581.44;5026640;28;66397;-37
2021/09/25 09:55:48;;;;;;;9.55;8.18;;;;;;;31.65;65.84;100576.63;5040236;28;70021;-36
2021/09/25 09:58:19;;;;;;;10.82;7.85;;;;;;;31.64;65.35;100560.56;5029840;28;66682;-36
2021/09/25 10:00:50;;;;;;;9.43;7.40;;;;;;;31.69;65.53;100563.41;5049091;27;70234;-37
2021/09/25 10:03:22;;;;;;;24.30;7.82;;;;;;;31.74;66.10;100555.41;5049118;28;66803;-36
2021/09/25 10:05:54;;;;;;;11.65;7.30;;;;;;;31.72;65.65;100552.09;5053600;28;69857;-36
2021/09/25 10:08:26;;;;;;;17.25;6.32;;;;;;;31.68;66.37;100550.91;5049257;28;66188;-37
2021/09/25 10:10:56;;;;;;;;;;;;;;;31.44;66.66;100559.00;5052112;28;70029;-37
2021/09/25 10:13:27;;;;;;;8.57;5.20;;;;;;;31.69;65.67;100575.06;5051654;28;66908;-37
2021/09/25 10:15:59;;;;;;;9.77;5.23;;;;;;;31.69;65.37;100569.66;5035561;28;70168;-37
2021/09/25 10:18:30;;;;;;;5.85;5.28;;;;;;;31.67;65.99;100570.94;5033766;28;65691;-36
2021/09/25 10:21:04;;;;;;;9.95;5.63;;;;;;;31.50;66.47;100549.94;5042510;28;70141;-37
2021/09/25 10:23:37;;;;;;;9.55;4.68;;;;;;;31.70;66.76;100586.75;5047675;28;65612;-37
2021/09/25 10:26:09;;;;;;;10.63;4.60;;;;;;;31.72;66.16;100588.16;5047420;28;70006;-36
2021/09/25 10:28:39;;;;;;;;;;;;;;;31.41;67.71;100593.88;5049020;27;66519;-35
2021/09/25 10:31:18;;;;;;;7.70;4.22;;;;;;;31.55;67.36;100579.88;5029885;28;70207;-37
2021/09/25 10:34:10;;;;;;;11.18;4.97;;;;;;;31.50;68.22;100587.88;5046449;28;66308;-36
2021/09/25 10:36:57;;;;;;;16.42;4.75;;;;;;;31.58;67.56;100594.88;5030110;28;70111;-37
2021/09/25 10:39:34;;;;;;;12.82;4.38;;;;;;;31.49;66.92;100572.69;5015880;28;65426;-38
2021/09/25 10:42:12;;;;;;;5.00;4.50;;;;;;;31.70;66.82;100613.88;5022186;28;70212;-36
2021/09/25 10:44:44;;;;;;;9.05;4.05;;;;;;;31.71;66.12;100621.78;5032756;28;65844;-37
2021/09/25 10:47:21;;;;;;;9.73;4.55;;;;;;;31.68;66.42;100611.41;5047359;28;69909;-37
2021/09/25 10:49:58;;;;;;;5.30;4.00;;;;;;;31.66;66.15;100618.13;5038883;28;67136;-36
2021/09/25 10:52:50;;;;;;;6.22;4.28;;;;;;;31.68;66.51;100632.25;5044066;28;70145;-37
2021/09/25 10:55:29;;;;;;;6.45;3.78;;;;;;;31.53;66.15;100595.53;5038352;28;66312;-37
2021/09/25 10:58:23;;;;;;;5.93;4.50;;;;;;;31.65;66.47;100621.88;5041360;28;72802;-37
2021/09/25 11:01:18;;;;;;;4.53;4.22;;;;;;;31.66;66.09;100624.34;5042444;28;66562;-37
2021/09/25 11:03:58;;;;;;;4.43;4.10;;;;;;;31.75;66.15;100638.41;5024591;28;70039;-40
2021/09/25 11:06:42;;;;;;;5.93;4.07;;;;;;;31.77;66.12;100639.00;5038959;28;65881;-36
2021/09/25 11:09:37;;;;;;;5.35;4.50;;;;;;;31.76;65.88;100650.91;5042281;28;70534;-37
2021/09/25 11:12:15;;;;;;;4.90;4.38;;;;;;;31.77;66.05;100658.81;5046329;28;66129;-36
2021/09/25 11:14:52;;;;;;;4.45;4.15;;;;;;;31.80;65.35;100669.19;5028298;28;69291;-37
2021/09/25 11:17:25;;;;;;;4.78;4.28;;;;;;;31.81;65.80;100659.16;5046693;28;66649;-35
2021/09/25 11:20:03;;;;;;;4.05;3.72;;;;;;;31.85;65.91;100665.81;5032100;28;68913;-37
2021/09/25 11:22:47;;;;;;;5.38;4.60;;;;;;;31.81;66.28;100656.47;5043025;28;65991;-38
2021/09/25 11:25:22;;;;;;;5.75;5.20;;;;;;;31.87;66.40;100679.94;5045809;28;69696;-38
2021/09/25 11:27:56;;;;;;;7.68;5.13;;;;;;;31.79;66.73;100672.16;5039175;28;67103;-37
2021/09/25 11:30:29;;;;;;;6.00;5.40;;;;;;;31.77;66.85;100685.13;5039597;28;69400;-37
2021/09/25 11:33:02;;;;;;;14.13;4.32;;;;;;;31.74;67.43;100685.56;5044777;27;65977;-37
2021/09/25 11:35:37;;;;;;;5.95;5.10;;;;;;;31.68;67.30;100672.91;5045516;28;70231;-36
2021/09/25 11:38:12;;;;;;;6.30;4.68;;;;;;;31.70;68.60;100676.22;5022691;28;66320;-36
2021/09/25 11:40:52;;;;;;;6.10;5.28;;;;;;;31.73;68.29;100683.91;5039112;28;70850;-36
2021/09/25 11:43:24;;;;;;;9.20;4.95;;;;;;;31.68;68.55;100675.63;5042743;28;65731;-37
2021/09/25 11:45:56;;;;;;;6.18;5.05;;;;;;;31.65;68.29;100681.50;5045926;28;70361;-37
2021/09/25 11:48:32;;;;;;;5.00;4.60;;;;;;;31.67;68.51;100685.66;5045736;28;66212;-33
2021/09/25 11:51:10;;;;;;;5.38;4.97;;;;;;;31.66;68.77;100683.19;5044948;28;70250;-38
2021/09/25 11:53:45;;;;;;;6.63;4.80;;;;;;;31.49;68.76;100659.44;5025813;28;66530;-36